sensor_id;sensor_type;location;lat;lon;timestamp;P1;durP1;ratioP1;P2;durP2;ratioP2
29906;SDS011;16776;50.958;10.994;2022-08-01T00:01:38;0.70;;;0.70;;
29906;SDS011;16776;50.958;10.994;2022-08-01T00:04:04;0.82;;;0.63;;
29906;SDS011;16776;50.958;10.994;2022-08-01T00:06:31;0.40;;;0.40;;
29906;SDS011;16776;50.958;10.994;2022-08-01T00:08:58;0.47;;;0.47;;
29906;SDS011;16776;50.958;10.994;2022-08-01T00:11:24;0.50;;;0.50;;
29906;SDS011;16776;50.958;10.994;2022-08-01T00:13:51;0.45;;;0.45;;
29906;SDS011;16776;50.958;10.994;2022-08-01T00:16:18;0.30;;;0.30;;
29906;SDS011;16776;50.958;10.994;2022-08-01T00:18:48;0.38;;;0.38;;
29906;SDS011;16776;50.958;10.994;2022-08-01T00:21:15;0.80;;;0.52;;
29906;SDS011;16776;50.958;10.994;2022-08-01T00:23:42;0.77;;;0.60;;
29906;SDS011;16776;50.958;10.994;2022-08-01T00:26:10;1.75;;;0.50;;
29906;SDS011;16776;50.958;10.994;2022-08-01T00:28:36;0.43;;;0.43;;
29906;SDS011;16776;50.958;10.994;2022-08-01T00:31:03;0.93;;;0.60;;
29906;SDS011;16776;50.958;10.994;2022-08-01T00:33:30;0.50;;;0.50;;
29906;SDS011;16776;50.958;10.994;2022-08-01T00:35:58;0.57;;;0.57;;
29906;SDS011;16776;50.958;10.994;2022-08-01T00:38:24;0.52;;;0.50;;
29906;SDS011;16776;50.958;10.994;2022-08-01T00:40:51;0.63;;;0.60;;
29906;SDS011;16776;50.958;10.994;2022-08-01T00:43:17;0.63;;;0.50;;
29906;SDS011;16776;50.958;10.994;2022-08-01T00:45:44;0.93;;;0.50;;
29906;SDS011;16776;50.958;10.994;2022-08-01T00:48:11;0.68;;;0.60;;
29906;SDS011;16776;50.958;10.994;2022-08-01T00:50:37;0.60;;;0.60;;
29906;SDS011;16776;50.958;10.994;2022-08-01T00:53:05;0.50;;;0.50;;
29906;SDS011;16776;50.958;10.994;2022-08-01T00:55:32;0.60;;;0.60;;
29906;SDS011;16776;50.958;10.994;2022-08-01T00:57:59;0.63;;;0.63;;
29906;SDS011;16776;50.958;10.994;2022-08-01T01:00:26;0.50;;;0.50;;
29906;SDS011;16776;50.958;10.994;2022-08-01T01:02:53;0.80;;;0.63;;
29906;SDS011;16776;50.958;10.994;2022-08-01T01:05:19;0.40;;;0.40;;
29906;SDS011;16776;50.958;10.994;2022-08-01T01:07:48;0.47;;;0.47;;
29906;SDS011;16776;50.958;10.994;2022-08-01T01:10:22;0.85;;;0.50;;
29906;SDS011;16776;50.958;10.994;2022-08-01T01:12:59;0.60;;;0.60;;
29906;SDS011;16776;50.958;10.994;2022-08-01T01:15:30;1.30;;;0.70;;
29906;SDS011;16776;50.958;10.994;2022-08-01T01:18:02;0.70;;;0.70;;
29906;SDS011;16776;50.958;10.994;2022-08-01T01:20:34;0.70;;;0.70;;
29906;SDS011;16776;50.958;10.994;2022-08-01T01:23:12;0.50;;;0.50;;
29906;SDS011;16776;50.958;10.994;2022-08-01T01:28:47;0.45;;;0.45;;
29906;SDS011;16776;50.958;10.994;2022-08-01T01:31:23;0.50;;;0.50;;
29906;SDS011;16776;50.958;10.994;2022-08-01T01:33:52;1.38;;;0.50;;
29906;SDS011;16776;50.958;10.994;2022-08-01T01:36:21;0.43;;;0.43;;
29906;SDS011;16776;50.958;10.994;2022-08-01T01:38:50;0.98;;;0.80;;
29906;SDS011;16776;50.958;10.994;2022-08-01T01:41:18;0.50;;;0.50;;
29906;SDS011;16776;50.958;10.994;2022-08-01T01:43:48;0.68;;;0.47;;
29906;SDS011;16776;50.958;10.994;2022-08-01T01:46:16;0.63;;;0.63;;
29906;SDS011;16776;50.958;10.994;2022-08-01T01:48:47;0.68;;;0.68;;
29906;SDS011;16776;50.958;10.994;2022-08-01T01:51:18;0.40;;;0.40;;
29906;SDS011;16776;50.958;10.994;2022-08-01T01:53:47;0.60;;;0.60;;
29906;SDS011;16776;50.958;10.994;2022-08-01T01:56:14;0.38;;;0.38;;
29906;SDS011;16776;50.958;10.994;2022-08-01T01:58:43;0.70;;;0.70;;
29906;SDS011;16776;50.958;10.994;2022-08-01T02:01:12;0.50;;;0.50;;
29906;SDS011;16776;50.958;10.994;2022-08-01T02:03:41;0.63;;;0.52;;
29906;SDS011;16776;50.958;10.994;2022-08-01T02:06:09;0.52;;;0.52;;
29906;SDS011;16776;50.958;10.994;2022-08-01T02:08:39;0.28;;;0.28;;
29906;SDS011;16776;50.958;10.994;2022-08-01T02:11:08;0.40;;;0.40;;
29906;SDS011;16776;50.958;10.994;2022-08-01T02:13:48;1.23;;;0.40;;
29906;SDS011;16776;50.958;10.994;2022-08-01T02:16:20;0.38;;;0.38;;
29906;SDS011;16776;50.958;10.994;2022-08-01T02:18:49;0.73;;;0.73;;
29906;SDS011;16776;50.958;10.994;2022-08-01T02:21:16;1.58;;;0.50;;
29906;SDS011;16776;50.958;10.994;2022-08-01T02:23:50;0.40;;;0.40;;
29906;SDS011;16776;50.958;10.994;2022-08-01T02:26:19;0.22;;;0.22;;
29906;SDS011;16776;50.958;10.994;2022-08-01T02:28:50;0.60;;;0.60;;
29906;SDS011;16776;50.958;10.994;2022-08-01T02:31:23;0.30;;;0.30;;
29906;SDS011;16776;50.958;10.994;2022-08-01T02:33:52;0.40;;;0.40;;
29906;SDS011;16776;50.958;10.994;2022-08-01T02:36:23;0.50;;;0.50;;
29906;SDS011;16776;50.958;10.994;2022-08-01T02:38:52;0.60;;;0.60;;
29906;SDS011;16776;50.958;10.994;2022-08-01T02:41:22;0.40;;;0.40;;
29906;SDS011;16776;50.958;10.994;2022-08-01T02:43:52;0.40;;;0.40;;
29906;SDS011;16776;50.958;10.994;2022-08-01T02:46:25;0.50;;;0.50;;
29906;SDS011;16776;50.958;10.994;2022-08-01T02:48:55;0.50;;;0.50;;
29906;SDS011;16776;50.958;10.994;2022-08-01T02:51:28;0.50;;;0.50;;
29906;SDS011;16776;50.958;10.994;2022-08-01T02:53:56;0.38;;;0.38;;
29906;SDS011;16776;50.958;10.994;2022-08-01T02:56:27;0.40;;;0.40;;
29906;SDS011;16776;50.958;10.994;2022-08-01T02:59:01;0.60;;;0.60;;
29906;SDS011;16776;50.958;10.994;2022-08-01T03:01:34;0.52;;;0.52;;
29906;SDS011;16776;50.958;10.994;2022-08-01T03:04:02;0.40;;;0.40;;
29906;SDS011;16776;50.958;10.994;2022-08-01T03:06:31;0.40;;;0.40;;
29906;SDS011;16776;50.958;10.994;2022-08-01T03:08:58;0.47;;;0.47;;
29906;SDS011;16776;50.958;10.994;2022-08-01T03:11:27;0.40;;;0.40;;
29906;SDS011;16776;50.958;10.994;2022-08-01T03:13:59;0.60;;;0.60;;
29906;SDS011;16776;50.958;10.994;2022-08-01T03:16:28;0.75;;;0.32;;
29906;SDS011;16776;50.958;10.994;2022-08-01T03:18:58;0.43;;;0.30;;
29906;SDS011;16776;50.958;10.994;2022-08-01T03:21:28;0.95;;;0.52;;
29906;SDS011;16776;50.958;10.994;2022-08-01T03:23:57;0.43;;;0.32;;
29906;SDS011;16776;50.958;10.994;2022-08-01T03:26:26;0.50;;;0.50;;
29906;SDS011;16776;50.958;10.994;2022-08-01T03:28:55;0.40;;;0.40;;
29906;SDS011;16776;50.958;10.994;2022-08-01T03:31:23;0.40;;;0.40;;
29906;SDS011;16776;50.958;10.994;2022-08-01T03:33:51;0.57;;;0.57;;
29906;SDS011;16776;50.958;10.994;2022-08-01T03:36:19;0.50;;;0.50;;
29906;SDS011;16776;50.958;10.994;2022-08-01T03:38:51;0.40;;;0.40;;
29906;SDS011;16776;50.958;10.994;2022-08-01T03:41:21;1.00;;;0.63;;
29906;SDS011;16776;50.958;10.994;2022-08-01T03:43:52;0.40;;;0.40;;
29906;SDS011;16776;50.958;10.994;2022-08-01T03:46:24;0.50;;;0.50;;
29906;SDS011;16776;50.958;10.994;2022-08-01T03:48:55;0.52;;;0.52;;
29906;SDS011;16776;50.958;10.994;2022-08-01T03:51:27;0.50;;;0.50;;
29906;SDS011;16776;50.958;10.994;2022-08-01T03:53:57;0.38;;;0.38;;
29906;SDS011;16776;50.958;10.994;2022-08-01T03:56:26;0.40;;;0.40;;
29906;SDS011;16776;50.958;10.994;2022-08-01T03:58:56;0.40;;;0.40;;
29906;SDS011;16776;50.958;10.994;2022-08-01T04:01:24;0.63;;;0.40;;
29906;SDS011;16776;50.958;10.994;2022-08-01T04:03:52;0.50;;;0.50;;
29906;SDS011;16776;50.958;10.994;2022-08-01T04:06:19;0.50;;;0.40;;
29906;SDS011;16776;50.958;10.994;2022-08-01T04:08:47;0.82;;;0.50;;
29906;SDS011;16776;50.958;10.994;2022-08-01T04:11:21;0.43;;;0.43;;
29906;SDS011;16776;50.958;10.994;2022-08-01T04:13:49;0.20;;;0.20;;
29906;SDS011;16776;50.958;10.994;2022-08-01T04:16:17;1.55;;;0.40;;
29906;SDS011;16776;50.958;10.994;2022-08-01T04:18:43;0.40;;;0.40;;
29906;SDS011;16776;50.958;10.994;2022-08-01T04:21:10;0.43;;;0.43;;
29906;SDS011;16776;50.958;10.994;2022-08-01T04:23:37;0.82;;;0.65;;
29906;SDS011;16776;50.958;10.994;2022-08-01T04:26:08;0.68;;;0.60;;
29906;SDS011;16776;50.958;10.994;2022-08-01T04:28:36;0.55;;;0.55;;
29906;SDS011;16776;50.958;10.994;2022-08-01T04:31:05;0.40;;;0.40;;
29906;SDS011;16776;50.958;10.994;2022-08-01T04:33:37;0.50;;;0.45;;
29906;SDS011;16776;50.958;10.994;2022-08-01T04:36:10;0.35;;;0.35;;
29906;SDS011;16776;50.958;10.994;2022-08-01T04:38:48;0.40;;;0.40;;
29906;SDS011;16776;50.958;10.994;2022-08-01T04:41:21;0.30;;;0.30;;
29906;SDS011;16776;50.958;10.994;2022-08-01T04:43:50;0.50;;;0.50;;
29906;SDS011;16776;50.958;10.994;2022-08-01T04:46:28;0.50;;;0.50;;
29906;SDS011;16776;50.958;10.994;2022-08-01T04:49:03;0.47;;;0.47;;
29906;SDS011;16776;50.958;10.994;2022-08-01T04:51:49;1.10;;;0.40;;
29906;SDS011;16776;50.958;10.994;2022-08-01T04:56:56;0.40;;;0.40;;
29906;SDS011;16776;50.958;10.994;2022-08-01T04:59:30;0.52;;;0.52;;
29906;SDS011;16776;50.958;10.994;2022-08-01T05:02:07;0.43;;;0.38;;
29906;SDS011;16776;50.958;10.994;2022-08-01T05:04:46;1.20;;;0.32;;
29906;SDS011;16776;50.958;10.994;2022-08-01T05:07:20;0.40;;;0.40;;
29906;SDS011;16776;50.958;10.994;2022-08-01T05:09:47;0.73;;;0.50;;
29906;SDS011;16776;50.958;10.994;2022-08-01T05:12:15;0.43;;;0.40;;
29906;SDS011;16776;50.958;10.994;2022-08-01T05:14:42;0.47;;;0.40;;
29906;SDS011;16776;50.958;10.994;2022-08-01T05:17:09;0.40;;;0.40;;
29906;SDS011;16776;50.958;10.994;2022-08-01T05:19:36;0.30;;;0.30;;
29906;SDS011;16776;50.958;10.994;2022-08-01T05:22:04;0.40;;;0.40;;
29906;SDS011;16776;50.958;10.994;2022-08-01T05:24:32;0.35;;;0.35;;
29906;SDS011;16776;50.958;10.994;2022-08-01T05:26:59;0.80;;;0.40;;
29906;SDS011;16776;50.958;10.994;2022-08-01T05:29:28;0.52;;;0.52;;
29906;SDS011;16776;50.958;10.994;2022-08-01T05:31:54;0.30;;;0.30;;
29906;SDS011;16776;50.958;10.994;2022-08-01T05:34:21;0.40;;;0.40;;
29906;SDS011;16776;50.958;10.994;2022-08-01T05:36:48;0.40;;;0.40;;
29906;SDS011;16776;50.958;10.994;2022-08-01T05:39:15;0.40;;;0.40;;
29906;SDS011;16776;50.958;10.994;2022-08-01T05:41:41;0.30;;;0.30;;
29906;SDS011;16776;50.958;10.994;2022-08-01T05:44:08;0.40;;;0.40;;
29906;SDS011;16776;50.958;10.994;2022-08-01T05:46:36;0.40;;;0.40;;
29906;SDS011;16776;50.958;10.994;2022-08-01T05:49:03;0.30;;;0.30;;
29906;SDS011;16776;50.958;10.994;2022-08-01T05:51:31;0.30;;;0.30;;
29906;SDS011;16776;50.958;10.994;2022-08-01T05:53:58;0.40;;;0.40;;
29906;SDS011;16776;50.958;10.994;2022-08-01T05:56:25;0.30;;;0.30;;
29906;SDS011;16776;50.958;10.994;2022-08-01T05:58:51;0.35;;;0.35;;
29906;SDS011;16776;50.958;10.994;2022-08-01T06:01:21;0.40;;;0.40;;
29906;SDS011;16776;50.958;10.994;2022-08-01T06:03:48;0.40;;;0.38;;
29906;SDS011;16776;50.958;10.994;2022-08-01T06:06:19;0.40;;;0.40;;
29906;SDS011;16776;50.958;10.994;2022-08-01T06:08:45;0.40;;;0.40;;
29906;SDS011;16776;50.958;10.994;2022-08-01T06:11:12;1.02;;;0.60;;
29906;SDS011;16776;50.958;10.994;2022-08-01T06:13:38;0.32;;;0.32;;
29906;SDS011;16776;50.958;10.994;2022-08-01T06:16:05;0.38;;;0.38;;
29906;SDS011;16776;50.958;10.994;2022-08-01T06:18:32;0.40;;;0.40;;
29906;SDS011;16776;50.958;10.994;2022-08-01T06:21:02;0.30;;;0.30;;
29906;SDS011;16776;50.958;10.994;2022-08-01T06:23:28;0.32;;;0.32;;
29906;SDS011;16776;50.958;10.994;2022-08-01T06:25:55;0.40;;;0.40;;
29906;SDS011;16776;50.958;10.994;2022-08-01T06:28:23;0.43;;;0.43;;
29906;SDS011;16776;50.958;10.994;2022-08-01T06:30:49;0.43;;;0.43;;
29906;SDS011;16776;50.958;10.994;2022-08-01T06:33:16;0.40;;;0.40;;
29906;SDS011;16776;50.958;10.994;2022-08-01T06:35:42;0.65;;;0.38;;
29906;SDS011;16776;50.958;10.994;2022-08-01T06:38:10;0.60;;;0.47;;
29906;SDS011;16776;50.958;10.994;2022-08-01T06:40:37;0.40;;;0.40;;
29906;SDS011;16776;50.958;10.994;2022-08-01T06:43:04;0.43;;;0.43;;
29906;SDS011;16776;50.958;10.994;2022-08-01T06:45:30;0.43;;;0.43;;
29906;SDS011;16776;50.958;10.994;2022-08-01T06:47:57;0.73;;;0.73;;
29906;SDS011;16776;50.958;10.994;2022-08-01T06:50:24;0.60;;;0.60;;
29906;SDS011;16776;50.958;10.994;2022-08-01T06:52:50;0.43;;;0.43;;
29906;SDS011;16776;50.958;10.994;2022-08-01T06:55:18;1.60;;;0.40;;
29906;SDS011;16776;50.958;10.994;2022-08-01T06:57:46;0.20;;;0.20;;
29906;SDS011;16776;50.958;10.994;2022-08-01T07:00:16;0.30;;;0.30;;
29906;SDS011;16776;50.958;10.994;2022-08-01T07:02:47;0.30;;;0.30;;
29906;SDS011;16776;50.958;10.994;2022-08-01T07:05:13;0.30;;;0.30;;
29906;SDS011;16776;50.958;10.994;2022-08-01T07:07:40;0.40;;;0.40;;
29906;SDS011;16776;50.958;10.994;2022-08-01T07:10:07;0.40;;;0.40;;
29906;SDS011;16776;50.958;10.994;2022-08-01T07:12:38;0.50;;;0.50;;
29906;SDS011;16776;50.958;10.994;2022-08-01T07:15:07;0.50;;;0.50;;
29906;SDS011;16776;50.958;10.994;2022-08-01T07:17:36;1.20;;;0.40;;
29906;SDS011;16776;50.958;10.994;2022-08-01T07:20:03;0.28;;;0.28;;
29906;SDS011;16776;50.958;10.994;2022-08-01T07:22:31;0.40;;;0.40;;
29906;SDS011;16776;50.958;10.994;2022-08-01T07:25:02;0.32;;;0.32;;
29906;SDS011;16776;50.958;10.994;2022-08-01T07:27:31;0.20;;;0.20;;
29906;SDS011;16776;50.958;10.994;2022-08-01T07:30:00;2.35;;;0.50;;
29906;SDS011;16776;50.958;10.994;2022-08-01T07:32:26;1.48;;;0.40;;
29906;SDS011;16776;50.958;10.994;2022-08-01T07:34:54;0.50;;;0.40;;
29906;SDS011;16776;50.958;10.994;2022-08-01T07:37:21;0.30;;;0.30;;
29906;SDS011;16776;50.958;10.994;2022-08-01T07:39:48;1.35;;;0.60;;
29906;SDS011;16776;50.958;10.994;2022-08-01T07:42:16;0.60;;;0.32;;
29906;SDS011;16776;50.958;10.994;2022-08-01T07:44:42;0.30;;;0.30;;
29906;SDS011;16776;50.958;10.994;2022-08-01T07:47:10;0.35;;;0.35;;
29906;SDS011;16776;50.958;10.994;2022-08-01T07:49:37;0.40;;;0.22;;
29906;SDS011;16776;50.958;10.994;2022-08-01T07:52:04;0.38;;;0.38;;
29906;SDS011;16776;50.958;10.994;2022-08-01T07:54:31;0.28;;;0.28;;
29906;SDS011;16776;50.958;10.994;2022-08-01T07:56:58;0.20;;;0.20;;
29906;SDS011;16776;50.958;10.994;2022-08-01T07:59:25;0.25;;;0.25;;
29906;SDS011;16776;50.958;10.994;2022-08-01T08:01:51;0.30;;;0.30;;
29906;SDS011;16776;50.958;10.994;2022-08-01T08:04:19;0.35;;;0.35;;
29906;SDS011;16776;50.958;10.994;2022-08-01T08:06:46;1.10;;;0.30;;
29906;SDS011;16776;50.958;10.994;2022-08-01T08:09:14;0.35;;;0.35;;
29906;SDS011;16776;50.958;10.994;2022-08-01T08:11:42;0.30;;;0.30;;
29906;SDS011;16776;50.958;10.994;2022-08-01T08:14:09;0.30;;;0.30;;
29906;SDS011;16776;50.958;10.994;2022-08-01T08:16:36;0.40;;;0.35;;
29906;SDS011;16776;50.958;10.994;2022-08-01T08:19:02;0.52;;;0.20;;
29906;SDS011;16776;50.958;10.994;2022-08-01T08:21:30;0.30;;;0.30;;
29906;SDS011;16776;50.958;10.994;2022-08-01T08:23:57;0.10;;;0.10;;
29906;SDS011;16776;50.958;10.994;2022-08-01T08:26:41;0.25;;;0.25;;
29906;SDS011;16776;50.958;10.994;2022-08-01T08:29:07;0.25;;;0.25;;
29906;SDS011;16776;50.958;10.994;2022-08-01T08:31:34;0.20;;;0.20;;
29906;SDS011;16776;50.958;10.994;2022-08-01T08:34:00;0.30;;;0.20;;
29906;SDS011;16776;50.958;10.994;2022-08-01T08:36:27;0.20;;;0.20;;
29906;SDS011;16776;50.958;10.994;2022-08-01T08:38:55;0.10;;;0.10;;
29906;SDS011;16776;50.958;10.994;2022-08-01T08:41:21;0.20;;;0.20;;
29906;SDS011;16776;50.958;10.994;2022-08-01T08:43:52;0.30;;;0.22;;
29906;SDS011;16776;50.958;10.994;2022-08-01T08:46:19;0.30;;;0.20;;
29906;SDS011;16776;50.958;10.994;2022-08-01T08:48:47;0.28;;;0.20;;
29906;SDS011;16776;50.958;10.994;2022-08-01T08:51:13;0.20;;;0.20;;
29906;SDS011;16776;50.958;10.994;2022-08-01T08:53:44;0.43;;;0.20;;
29906;SDS011;16776;50.958;10.994;2022-08-01T08:56:13;0.13;;;0.13;;
29906;SDS011;16776;50.958;10.994;2022-08-01T08:58:41;0.30;;;0.30;;
29906;SDS011;16776;50.958;10.994;2022-08-01T09:01:10;0.40;;;0.32;;
29906;SDS011;16776;50.958;10.994;2022-08-01T09:03:37;0.10;;;0.10;;
29906;SDS011;16776;50.958;10.994;2022-08-01T09:06:05;0.35;;;0.30;;
29906;SDS011;16776;50.958;10.994;2022-08-01T09:08:32;0.20;;;0.17;;
29906;SDS011;16776;50.958;10.994;2022-08-01T09:10:59;0.60;;;0.20;;
29906;SDS011;16776;50.958;10.994;2022-08-01T09:13:27;0.20;;;0.20;;
29906;SDS011;16776;50.958;10.994;2022-08-01T09:15:54;0.20;;;0.20;;
29906;SDS011;16776;50.958;10.994;2022-08-01T09:18:27;1.13;;;0.10;;
29906;SDS011;16776;50.958;10.994;2022-08-01T09:23:43;0.55;;;0.15;;
29906;SDS011;16776;50.958;10.994;2022-08-01T09:26:11;0.43;;;0.20;;
29906;SDS011;16776;50.958;10.994;2022-08-01T09:28:41;0.20;;;0.20;;
29906;SDS011;16776;50.958;10.994;2022-08-01T09:31:08;0.15;;;0.15;;
29906;SDS011;16776;50.958;10.994;2022-08-01T09:33:49;0.17;;;0.17;;
29906;SDS011;16776;50.958;10.994;2022-08-01T09:36:16;0.70;;;0.30;;
29906;SDS011;16776;50.958;10.994;2022-08-01T09:38:43;0.20;;;0.20;;
29906;SDS011;16776;50.958;10.994;2022-08-01T09:41:12;0.10;;;0.10;;
29906;SDS011;16776;50.958;10.994;2022-08-01T09:43:38;0.20;;;0.10;;
29906;SDS011;16776;50.958;10.994;2022-08-01T09:46:13;0.40;;;0.10;;
29906;SDS011;16776;50.958;10.994;2022-08-01T09:48:40;0.20;;;0.20;;
29906;SDS011;16776;50.958;10.994;2022-08-01T09:51:27;0.52;;;0.17;;
29906;SDS011;16776;50.958;10.994;2022-08-01T09:53:54;0.20;;;0.20;;
29906;SDS011;16776;50.958;10.994;2022-08-01T09:56:21;0.10;;;0.10;;
29906;SDS011;16776;50.958;10.994;2022-08-01T09:58:50;0.20;;;0.20;;
29906;SDS011;16776;50.958;10.994;2022-08-01T10:01:19;0.10;;;0.10;;
29906;SDS011;16776;50.958;10.994;2022-08-01T10:03:47;0.20;;;0.20;;
29906;SDS011;16776;50.958;10.994;2022-08-01T10:06:31;0.20;;;0.20;;
29906;SDS011;16776;50.958;10.994;2022-08-01T10:08:57;0.22;;;0.22;;
29906;SDS011;16776;50.958;10.994;2022-08-01T10:11:24;0.20;;;0.20;;
29906;SDS011;16776;50.958;10.994;2022-08-01T10:13:52;0.20;;;0.17;;
29906;SDS011;16776;50.958;10.994;2022-08-01T10:16:19;0.70;;;0.10;;
29906;SDS011;16776;50.958;10.994;2022-08-01T10:18:48;0.10;;;0.10;;
29906;SDS011;16776;50.958;10.994;2022-08-01T10:21:15;0.20;;;0.20;;
29906;SDS011;16776;50.958;10.994;2022-08-01T10:23:42;0.10;;;0.10;;
29906;SDS011;16776;50.958;10.994;2022-08-01T10:26:12;0.00;;;0.00;;
29906;SDS011;16776;50.958;10.994;2022-08-01T10:28:40;0.00;;;0.00;;
29906;SDS011;16776;50.958;10.994;2022-08-01T10:31:17;0.13;;;0.13;;
29906;SDS011;16776;50.958;10.994;2022-08-01T10:33:45;0.10;;;0.10;;
29906;SDS011;16776;50.958;10.994;2022-08-01T10:36:11;0.10;;;0.10;;
29906;SDS011;16776;50.958;10.994;2022-08-01T10:38:38;0.20;;;0.20;;
29906;SDS011;16776;50.958;10.994;2022-08-01T10:41:05;0.25;;;0.25;;
29906;SDS011;16776;50.958;10.994;2022-08-01T10:43:32;0.10;;;0.10;;
29906;SDS011;16776;50.958;10.994;2022-08-01T10:45:59;0.40;;;0.10;;
29906;SDS011;16776;50.958;10.994;2022-08-01T10:48:30;0.10;;;0.10;;
29906;SDS011;16776;50.958;10.994;2022-08-01T10:51:01;0.20;;;0.20;;
29906;SDS011;16776;50.958;10.994;2022-08-01T10:53:29;0.20;;;0.20;;
29906;SDS011;16776;50.958;10.994;2022-08-01T10:55:59;0.03;;;0.03;;
29906;SDS011;16776;50.958;10.994;2022-08-01T10:58:28;0.20;;;0.20;;
29906;SDS011;16776;50.958;10.994;2022-08-01T11:04:08;0.15;;;0.15;;
29906;SDS011;16776;50.958;10.994;2022-08-01T11:06:49;0.13;;;0.13;;
29906;SDS011;16776;50.958;10.994;2022-08-01T11:09:24;0.10;;;0.10;;
29906;SDS011;16776;50.958;10.994;2022-08-01T11:11:56;0.10;;;0.10;;
29906;SDS011;16776;50.958;10.994;2022-08-01T11:14:29;0.00;;;0.00;;
29906;SDS011;16776;50.958;10.994;2022-08-01T11:16:56;0.10;;;0.10;;
29906;SDS011;16776;50.958;10.994;2022-08-01T11:20:06;0.10;;;0.10;;
29906;SDS011;16776;50.958;10.994;2022-08-01T11:26:08;0.10;;;0.10;;
29906;SDS011;16776;50.958;10.994;2022-08-01T11:28:40;0.17;;;0.17;;
29906;SDS011;16776;50.958;10.994;2022-08-01T11:31:26;0.10;;;0.10;;
29906;SDS011;16776;50.958;10.994;2022-08-01T11:33:59;0.10;;;0.00;;
29906;SDS011;16776;50.958;10.994;2022-08-01T11:36:27;0.05;;;0.05;;
29906;SDS011;16776;50.958;10.994;2022-08-01T11:39:13;0.20;;;0.20;;
29906;SDS011;16776;50.958;10.994;2022-08-01T11:41:42;0.20;;;0.17;;
29906;SDS011;16776;50.958;10.994;2022-08-01T11:44:13;0.55;;;0.10;;
29906;SDS011;16776;50.958;10.994;2022-08-01T11:46:45;0.10;;;0.10;;
29906;SDS011;16776;50.958;10.994;2022-08-01T11:49:22;0.10;;;0.10;;
29906;SDS011;16776;50.958;10.994;2022-08-01T11:52:03;0.10;;;0.10;;
29906;SDS011;16776;50.958;10.994;2022-08-01T11:54:31;0.10;;;0.10;;
29906;SDS011;16776;50.958;10.994;2022-08-01T11:57:03;0.10;;;0.10;;
29906;SDS011;16776;50.958;10.994;2022-08-01T11:59:35;0.10;;;0.10;;
29906;SDS011;16776;50.958;10.994;2022-08-01T12:02:04;0.10;;;0.10;;
29906;SDS011;16776;50.958;10.994;2022-08-01T12:04:44;0.10;;;0.10;;
29906;SDS011;16776;50.958;10.994;2022-08-01T12:07:14;0.10;;;0.10;;
29906;SDS011;16776;50.958;10.994;2022-08-01T12:09:42;0.10;;;0.10;;
29906;SDS011;16776;50.958;10.994;2022-08-01T12:12:14;0.22;;;0.20;;
29906;SDS011;16776;50.958;10.994;2022-08-01T12:14:43;0.10;;;0.10;;
29906;SDS011;16776;50.958;10.994;2022-08-01T12:17:10;0.38;;;0.20;;
29906;SDS011;16776;50.958;10.994;2022-08-01T12:19:40;0.10;;;0.10;;
29906;SDS011;16776;50.958;10.994;2022-08-01T12:22:08;0.10;;;0.10;;
29906;SDS011;16776;50.958;10.994;2022-08-01T12:24:38;0.10;;;0.10;;
29906;SDS011;16776;50.958;10.994;2022-08-01T12:27:06;0.85;;;0.10;;
29906;SDS011;16776;50.958;10.994;2022-08-01T12:29:35;0.10;;;0.10;;
29906;SDS011;16776;50.958;10.994;2022-08-01T12:32:03;0.20;;;0.20;;
29906;SDS011;16776;50.958;10.994;2022-08-01T12:34:30;0.05;;;0.05;;
29906;SDS011;16776;50.958;10.994;2022-08-01T12:36:59;0.10;;;0.10;;
29906;SDS011;16776;50.958;10.994;2022-08-01T12:39:34;0.10;;;0.10;;
29906;SDS011;16776;50.958;10.994;2022-08-01T12:42:02;0.10;;;0.10;;
29906;SDS011;16776;50.958;10.994;2022-08-01T12:44:32;0.10;;;0.10;;
29906;SDS011;16776;50.958;10.994;2022-08-01T12:46:59;0.10;;;0.10;;
29906;SDS011;16776;50.958;10.994;2022-08-01T12:49:27;0.22;;;0.10;;
29906;SDS011;16776;50.958;10.994;2022-08-01T12:51:54;0.32;;;0.30;;
29906;SDS011;16776;50.958;10.994;2022-08-01T12:54:21;0.10;;;0.10;;
29906;SDS011;16776;50.958;10.994;2022-08-01T12:56:50;0.10;;;0.10;;
29906;SDS011;16776;50.958;10.994;2022-08-01T12:59:23;0.20;;;0.20;;
29906;SDS011;16776;50.958;10.994;2022-08-01T13:01:51;0.20;;;0.20;;
29906;SDS011;16776;50.958;10.994;2022-08-01T13:04:18;0.20;;;0.20;;
29906;SDS011;16776;50.958;10.994;2022-08-01T13:06:46;0.30;;;0.30;;
29906;SDS011;16776;50.958;10.994;2022-08-01T13:09:16;0.20;;;0.20;;
29906;SDS011;16776;50.958;10.994;2022-08-01T13:11:42;0.10;;;0.10;;
29906;SDS011;16776;50.958;10.994;2022-08-01T13:14:10;0.10;;;0.10;;
29906;SDS011;16776;50.958;10.994;2022-08-01T13:16:54;1.05;;;0.20;;
29906;SDS011;16776;50.958;10.994;2022-08-01T13:19:20;0.40;;;0.20;;
29906;SDS011;16776;50.958;10.994;2022-08-01T13:21:53;0.20;;;0.20;;
29906;SDS011;16776;50.958;10.994;2022-08-01T13:24:25;0.08;;;0.08;;
29906;SDS011;16776;50.958;10.994;2022-08-01T13:26:54;0.17;;;0.17;;
29906;SDS011;16776;50.958;10.994;2022-08-01T13:29:30;0.55;;;0.20;;
29906;SDS011;16776;50.958;10.994;2022-08-01T13:31:58;0.20;;;0.20;;
29906;SDS011;16776;50.958;10.994;2022-08-01T13:34:31;0.13;;;0.10;;
29906;SDS011;16776;50.958;10.994;2022-08-01T13:36:59;0.15;;;0.15;;
29906;SDS011;16776;50.958;10.994;2022-08-01T13:39:27;0.20;;;0.20;;
29906;SDS011;16776;50.958;10.994;2022-08-01T13:42:05;0.30;;;0.30;;
29906;SDS011;16776;50.958;10.994;2022-08-01T13:44:33;0.20;;;0.20;;
29906;SDS011;16776;50.958;10.994;2022-08-01T13:47:00;0.10;;;0.10;;
29906;SDS011;16776;50.958;10.994;2022-08-01T13:49:27;0.10;;;0.10;;
29906;SDS011;16776;50.958;10.994;2022-08-01T13:51:53;0.10;;;0.10;;
29906;SDS011;16776;50.958;10.994;2022-08-01T13:54:20;0.45;;;0.20;;
29906;SDS011;16776;50.958;10.994;2022-08-01T13:56:48;0.17;;;0.17;;
29906;SDS011;16776;50.958;10.994;2022-08-01T13:59:15;0.10;;;0.10;;
29906;SDS011;16776;50.958;10.994;2022-08-01T14:01:43;0.20;;;0.20;;
29906;SDS011;16776;50.958;10.994;2022-08-01T14:04:09;0.20;;;0.20;;
29906;SDS011;16776;50.958;10.994;2022-08-01T14:06:36;0.20;;;0.20;;
29906;SDS011;16776;50.958;10.994;2022-08-01T14:09:03;0.30;;;0.30;;
29906;SDS011;16776;50.958;10.994;2022-08-01T14:11:30;0.20;;;0.20;;
29906;SDS011;16776;50.958;10.994;2022-08-01T14:13:57;0.32;;;0.20;;
29906;SDS011;16776;50.958;10.994;2022-08-01T14:16:24;0.30;;;0.30;;
29906;SDS011;16776;50.958;10.994;2022-08-01T14:18:52;0.20;;;0.20;;
29906;SDS011;16776;50.958;10.994;2022-08-01T14:21:20;0.10;;;0.10;;
29906;SDS011;16776;50.958;10.994;2022-08-01T14:23:47;0.15;;;0.15;;
29906;SDS011;16776;50.958;10.994;2022-08-01T14:26:13;0.10;;;0.10;;
29906;SDS011;16776;50.958;10.994;2022-08-01T14:28:40;0.28;;;0.20;;
29906;SDS011;16776;50.958;10.994;2022-08-01T14:31:06;0.20;;;0.20;;
29906;SDS011;16776;50.958;10.994;2022-08-01T14:33:33;0.10;;;0.10;;
29906;SDS011;16776;50.958;10.994;2022-08-01T14:36:01;0.20;;;0.20;;
29906;SDS011;16776;50.958;10.994;2022-08-01T14:38:28;0.10;;;0.10;;
29906;SDS011;16776;50.958;10.994;2022-08-01T14:40:55;0.20;;;0.20;;
29906;SDS011;16776;50.958;10.994;2022-08-01T14:43:24;0.10;;;0.10;;
29906;SDS011;16776;50.958;10.994;2022-08-01T14:45:53;0.20;;;0.20;;
29906;SDS011;16776;50.958;10.994;2022-08-01T14:48:20;0.35;;;0.35;;
29906;SDS011;16776;50.958;10.994;2022-08-01T14:50:46;1.30;;;0.28;;
29906;SDS011;16776;50.958;10.994;2022-08-01T14:53:14;0.40;;;0.20;;
29906;SDS011;16776;50.958;10.994;2022-08-01T14:55:43;0.30;;;0.30;;
29906;SDS011;16776;50.958;10.994;2022-08-01T14:58:09;0.10;;;0.10;;
29906;SDS011;16776;50.958;10.994;2022-08-01T15:00:36;0.40;;;0.40;;